Decoded Metar for LFMD (CANNES in FRANCE) (IATA:CEQ) | Meteo·Mobile Aviation Weather
aviador You're here:

LFMD Decoded Metar

CANNES in FRANCE
Report Time2019-02-21 23:30:00
UTC Time2019-02-21 23:40:25
Flight Rules mvfr MVFR
WindVRB at 03 kt
Visibility7000 m
Phenomena:N/A
Clouds:N/A
Expected CloudBase > 400 ft AGL from Temp-Dew spread
CeilingNone
Temp06°C (ISA -9)
Dew Point05°C (93% RH)
AAT3.8°C
QNH1027 hPa
Density Alt-1,404 ft
Elevation30 ft
Report Wrong Elevation
Raw Report
METAR LFMD 212330Z AUTO VRB03KT 7000 NSC 06/05 Q1027=

Extra information for LFMD:More info

Metar Taf Metar & Taf Last 4 Metars F.Rules Stats Wind Profile Meteogram Temp Stats Airport Information Weather charts Add Link Nearby VenuesMetar ALERT Operation Metar Decoded Social comments